| time (UTC) | temp F | wind direction | speed MPH | gust MPH | rain 1hr in | rain 24hr in | rain mn in | humidity % | barometer mb |
| 20260507100002 | 54 | 309 | 1.0 | 4.0 | 0.00 | 0.00 | 0.00 | 89 | 1015.3 |
| 20260507095402 | 53 | 324 | 0.0 | 4.0 | 0.00 | 0.00 | 0.00 | 90 | 1015.3 |
| 20260507094502 | 53 | 298 | 1.0 | 4.0 | 0.00 | 0.00 | 0.00 | 90 | 1015.3 |
| 20260507093602 | 52 | 298 | 1.0 | 4.0 | 0.00 | 0.00 | 0.00 | 92 | 1015.2 |
| 20260507092703 | 52 | 305 | 1.0 | 4.0 | 0.00 | 0.00 | 0.00 | 93 | 1015.1 |
| 20260507091823 | 51 | 300 | 1.0 | 4.0 | 0.00 | 0.00 | 0.00 | 93 | 1015.1 |
| 20260507090902 | 51 | 0 | 0.0 | 0.0 | 0.00 | 0.00 | 0.00 | 93 | 1015.1 |
| 20260507090002 | 51 | 303 | 0.0 | 2.0 | 0.00 | 0.00 | 0.00 | 93 | 1015.0 |
| 20260507085403 | 51 | 305 | 1.0 | 2.0 | 0.00 | 0.00 | 0.00 | 93 | 1015.0 |
| 20260507084503 | 50 | 316 | 0.0 | 2.0 | 0.00 | 0.00 | 0.00 | 93 | 1014.9 |
| 20260507083602 | 50 | 317 | 0.0 | 2.0 | 0.00 | 0.00 | 0.00 | 94 | 1014.9 |
| 20260507082702 | 50 | 0 | 0.0 | 0.0 | 0.00 | 0.00 | 0.00 | 94 | 1014.9 |
| 20260507081824 | 50 | 0 | 0.0 | 0.0 | 0.00 | 0.00 | 0.00 | 94 | 1014.8 |
| 20260507080903 | 50 | 0 | 0.0 | 0.0 | 0.00 | 0.00 | 0.00 | 95 | 1014.7 |
| 20260507080003 | 49 | 0 | 0.0 | 0.0 | 0.00 | 0.00 | 0.00 | 95 | 1014.5 |
| 20260507075402 | 49 | 0 | 0.0 | 0.0 | 0.00 | 0.00 | 0.00 | 95 | 1014.4 |
| 20260507074503 | 49 | 0 | 0.0 | 0.0 | 0.00 | 0.00 | 0.00 | 95 | 1014.7 |
| 20260507073603 | 48 | 0 | 0.0 | 0.0 | 0.00 | 0.00 | 0.00 | 95 | 1014.6 |
| 20260507072702 | 48 | 0 | 0.0 | 0.0 | 0.00 | 0.00 | 0.00 | 95 | 1014.5 |
| 20260507071803 | 48 | 0 | 0.0 | 0.0 | 0.00 | 0.00 | 0.00 | 95 | 1014.5 |
| 20260507070904 | 48 | 0 | 0.0 | 0.0 | 0.00 | 0.00 | 0.00 | 95 | 1014.4 |
| 20260507070004 | 47 | 0 | 0.0 | 0.0 | 0.00 | 0.00 | 0.00 | 95 | 1014.4 |
| 20260507065403 | 47 | 0 | 0.0 | 0.0 | 0.00 | 0.00 | 0.00 | 95 | 1014.3 |
| 20260507064503 | 47 | 0 | 0.0 | 0.0 | 0.00 | 0.00 | 0.00 | 95 | 1014.2 |
| 20260507063624 | 47 | 0 | 0.0 | 0.0 | 0.00 | 0.00 | 0.00 | 95 | 1014.3 |
| 20260507062702 | 47 | 0 | 0.0 | 0.0 | 0.00 | 0.00 | 0.00 | 95 | 1014.1 |
| 20260507061824 | 47 | 0 | 0.0 | 0.0 | 0.00 | 0.00 | 0.00 | 95 | 1014.1 |
| 20260507060903 | 46 | 0 | 0.0 | 0.0 | 0.00 | 0.00 | 0.00 | 95 | 1014.2 |
| 20260507060002 | 46 | 0 | 0.0 | 0.0 | 0.00 | 0.00 | 0.00 | 95 | 1014.2 |
| 20260507055403 | 46 | 0 | 0.0 | 0.0 | 0.00 | 0.00 | 0.00 | 95 | 1014.1 |
| 20260507054503 | 46 | 343 | 1.0 | 2.0 | 0.00 | 0.00 | 0.00 | 95 | 1014.1 |
| 20260507053625 | 46 | 343 | 0.0 | 2.0 | 0.00 | 0.00 | 0.00 | 95 | 1014.0 |
| 20260507052703 | 46 | 344 | 1.0 | 2.0 | 0.00 | 0.00 | 0.00 | 95 | 1013.9 |
| 20260507051803 | 45 | 348 | 0.0 | 2.0 | 0.00 | 0.00 | 0.00 | 95 | 1013.8 |
| 20260507050925 | 45 | 349 | 0.0 | 2.0 | 0.00 | 0.00 | 0.00 | 95 | 1013.6 |
| 20260507050003 | 45 | 346 | 1.0 | 2.0 | 0.00 | 0.00 | 0.00 | 95 | 1013.6 |
| 20260507045403 | 45 | 343 | 1.0 | 2.0 | 0.00 | 0.00 | 0.00 | 95 | 1013.5 |
| 20260507044524 | 44 | 336 | 1.0 | 2.0 | 0.00 | 0.00 | 0.00 | 95 | 1013.5 |
| 20260507043604 | 44 | 336 | 0.0 | 4.0 | 0.00 | 0.00 | 0.00 | 95 | 1013.4 |
| 20260507042703 | 44 | 312 | 1.0 | 4.0 | 0.00 | 0.00 | 0.00 | 95 | 1013.2 |
| 20260507041803 | 44 | 288 | 1.0 | 4.0 | 0.00 | 0.00 | 0.00 | 94 | 1013.3 |
| 20260507040903 | 44 | 274 | 2.0 | 4.0 | 0.00 | 0.00 | 0.00 | 94 | 1013.3 |
| 20260507040003 | 44 | 298 | 1.0 | 4.0 | 0.00 | 0.00 | 0.00 | 95 | 1013.2 |
| 20260507035403 | 44 | 303 | 1.0 | 4.0 | 0.00 | 0.00 | 0.00 | 95 | 1013.2 |
| 20260507034524 | 44 | 301 | 2.0 | 4.0 | 0.00 | 0.00 | 0.00 | 95 | 1013.2 |
| 20260507033603 | 44 | 295 | 2.0 | 4.0 | 0.00 | 0.00 | 0.00 | 95 | 1013.1 |
| 20260507032703 | 43 | 284 | 1.0 | 4.0 | 0.00 | 0.00 | 0.00 | 95 | 1013.0 |
| 20260507031804 | 43 | 274 | 1.0 | 2.0 | 0.00 | 0.00 | 0.00 | 95 | 1013.1 |
| 20260507030903 | 43 | 0 | 0.0 | 0.0 | 0.00 | 0.00 | 0.00 | 94 | 1013.1 |
| 20260507030003 | 42 | 0 | 0.0 | 0.0 | 0.00 | 0.00 | 0.00 | 94 | 1013.1 |
| 20260507025403 | 42 | 0 | 0.0 | 0.0 | 0.00 | 0.00 | 0.00 | 93 | 1013.1 |
| 20260507024503 | 42 | 0 | 0.0 | 0.0 | 0.00 | 0.00 | 0.00 | 93 | 1013.0 |
| 20260507023603 | 42 | 0 | 0.0 | 0.0 | 0.00 | 0.00 | 0.00 | 93 | 1012.9 |
| 20260507022704 | 42 | 0 | 0.0 | 0.0 | 0.00 | 0.00 | 0.00 | 93 | 1013.0 |
| 20260507021825 | 42 | 0 | 0.0 | 0.0 | 0.00 | 0.00 | 0.00 | 93 | 1012.9 |
| 20260507020903 | 42 | 275 | 0.0 | 1.0 | 0.00 | 0.00 | 0.00 | 93 | 1012.9 |
| 20260507020003 | 43 | 0 | 0.0 | 0.0 | 0.00 | 0.00 | 0.00 | 92 | 1012.9 |
| 20260507015424 | 43 | 275 | 0.0 | 2.0 | 0.00 | 0.00 | 0.00 | 93 | 1012.9 |
| 20260507014503 | 43 | 274 | 1.0 | 2.0 | 0.00 | 0.00 | 0.00 | 93 | 1012.9 |
| 20260507013603 | 43 | 273 | 2.0 | 4.0 | 0.00 | 0.00 | 0.00 | 93 | 1012.8 |
| 20260507012703 | 43 | 272 | 2.0 | 4.0 | 0.00 | 0.00 | 0.00 | 93 | 1012.8 |
| 20260507011803 | 43 | 272 | 1.0 | 2.0 | 0.00 | 0.00 | 0.00 | 93 | 1012.9 |
| 20260507010903 | 44 | 271 | 1.0 | 2.0 | 0.00 | 0.00 | 0.00 | 93 | 1012.8 |
| 20260507010024 | 44 | 277 | 2.0 | 4.0 | 0.00 | 0.00 | 0.00 | 93 | 1012.8 |
| 20260507005403 | 44 | 290 | 1.0 | 4.0 | 0.00 | 0.00 | 0.00 | 92 | 1012.8 |
| 20260507004503 | 44 | 0 | 0.0 | 0.0 | 0.00 | 0.00 | 0.00 | 92 | 1012.8 |
| 20260507003603 | 44 | 0 | 0.0 | 0.0 | 0.00 | 0.00 | 0.00 | 92 | 1012.8 |
| 20260507002703 | 44 | 301 | 0.0 | 1.0 | 0.00 | 0.00 | 0.00 | 92 | 1012.8 |
| 20260507001803 | 44 | 0 | 0.0 | 0.0 | 0.00 | 0.00 | 0.00 | 92 | 1012.9 |
| 20260507000924 | 44 | 0 | 0.0 | 2.0 | 0.00 | 0.00 | 0.00 | 92 | 1012.9 |
| 20260507000003 | 43 | 302 | 0.0 | 2.0 | 0.00 | 0.00 | 0.00 | 91 | 1012.9 |
| 20260506235403 | 44 | 302 | 0.0 | 2.0 | 0.00 | 0.00 | 0.00 | 91 | 1012.9 |
| 20260506234524 | 44 | 302 | 0.0 | 2.0 | 0.00 | 0.00 | 0.00 | 91 | 1012.8 |
| 20260506233603 | 44 | 302 | 0.0 | 2.0 | 0.00 | 0.00 | 0.00 | 90 | 1012.9 |
| 20260506232724 | 44 | 0 | 0.0 | 0.0 | 0.00 | 0.00 | 0.00 | 90 | 1012.9 |
| 20260506231825 | 44 | 0 | 0.0 | 0.0 | 0.00 | 0.00 | 0.00 | 89 | 1012.9 |
| 20260506230903 | 45 | 302 | 0.0 | 2.0 | 0.00 | 0.00 | 0.00 | 90 | 1012.8 |
| 20260506230003 | 45 | 303 | 1.0 | 2.0 | 0.00 | 0.00 | 0.00 | 90 | 1012.8 |
| 20260506225404 | 45 | 303 | 1.0 | 2.0 | 0.00 | 0.00 | 0.00 | 90 | 1012.7 |
| 20260506224503 | 45 | 301 | 1.0 | 4.0 | 0.00 | 0.00 | 0.00 | 89 | 1012.7 |
| 20260506223604 | 46 | 312 | 1.0 | 2.0 | 0.00 | 0.00 | 0.00 | 89 | 1012.6 |
| 20260506222703 | 46 | 304 | 1.0 | 4.0 | 0.00 | 0.00 | 0.00 | 89 | 1012.6 |
| 20260506221803 | 46 | 296 | 1.0 | 2.0 | 0.00 | 0.00 | 0.00 | 88 | 1012.6 |
| 20260506220903 | 46 | 306 | 1.0 | 2.0 | 0.00 | 0.00 | 0.00 | 88 | 1012.5 |
| 20260506220004 | 46 | 296 | 2.0 | 5.0 | 0.00 | 0.00 | 0.00 | 88 | 1012.5 |
| 20260506215403 | 46 | 299 | 1.0 | 4.0 | 0.00 | 0.00 | 0.00 | 88 | 1012.5 |
| 20260506214503 | 46 | 294 | 1.0 | 4.0 | 0.00 | 0.00 | 0.00 | 88 | 1012.4 |
| 20260506213603 | 47 | 300 | 1.0 | 4.0 | 0.00 | 0.00 | 0.00 | 87 | 1012.4 |
| 20260506212703 | 47 | 295 | 2.0 | 5.0 | 0.00 | 0.00 | 0.00 | 87 | 1012.3 |
| 20260506211803 | 47 | 312 | 1.0 | 4.0 | 0.00 | 0.00 | 0.00 | 86 | 1012.3 |
| 20260506210903 | 47 | 324 | 2.0 | 5.0 | 0.00 | 0.00 | 0.00 | 86 | 1012.3 |
| 20260506210003 | 48 | 322 | 2.0 | 6.0 | 0.00 | 0.00 | 0.00 | 86 | 1012.3 |
| 20260506205403 | 48 | 326 | 2.0 | 6.0 | 0.00 | 0.00 | 0.00 | 85 | 1012.3 |
| 20260506204524 | 48 | 332 | 2.0 | 6.0 | 0.00 | 0.00 | 0.00 | 84 | 1012.2 |
| 20260506203603 | 49 | 329 | 1.0 | 7.0 | 0.00 | 0.00 | 0.00 | 84 | 1012.2 |
| 20260506202724 | 49 | 341 | 1.0 | 6.0 | 0.00 | 0.00 | 0.00 | 84 | 1012.2 |
| 20260506201824 | 49 | 351 | 2.0 | 6.0 | 0.00 | 0.00 | 0.00 | 83 | 1012.0 |
| 20260506200903 | 50 | 360 | 1.0 | 5.0 | 0.00 | 0.00 | 0.00 | 82 | 1012.0 |
| 20260506200003 | 50 | 347 | 1.0 | 4.0 | 0.00 | 0.00 | 0.00 | 81 | 1011.9 |
| 20260506195403 | 50 | 354 | 1.0 | 4.0 | 0.00 | 0.00 | 0.00 | 81 | 1011.8 |
| 20260506194503 | 51 | 355 | 1.0 | 7.0 | 0.00 | 0.00 | 0.00 | 81 | 1011.7 |
| 20260506193624 | 51 | 357 | 1.0 | 6.0 | 0.00 | 0.00 | 0.00 | 80 | 1011.5 |
| 20260506192705 | 52 | 332 | 1.0 | 8.0 | 0.00 | 0.00 | 0.00 | 79 | 1011.3 |
| 20260506191803 | 52 | 329 | 2.0 | 9.0 | 0.00 | 0.00 | 0.00 | 77 | 1011.2 |
| 20260506190904 | 53 | 334 | 4.0 | 8.0 | 0.00 | 0.00 | 0.00 | 76 | 1011.1 |
| 20260506190025 | 54 | 335 | 3.0 | 9.0 | 0.00 | 0.00 | 0.00 | 74 | 1011.0 |
| 20260506185403 | 55 | 335 | 3.0 | 8.0 | 0.00 | 0.00 | 0.00 | 74 | 1011.0 |
| 20260506184524 | 55 | 356 | 3.0 | 12.0 | 0.00 | 0.00 | 0.00 | 73 | 1010.9 |
| 20260506183603 | 56 | 353 | 5.0 | 12.0 | 0.00 | 0.00 | 0.00 | 71 | 1011.0 |
| 20260506182703 | 57 | 349 | 4.0 | 11.0 | 0.00 | 0.00 | 0.00 | 72 | 1010.9 |
| 20260506181804 | 57 | 342 | 3.0 | 9.0 | 0.00 | 0.00 | 0.00 | 70 | 1010.9 |
| 20260506180904 | 57 | 321 | 5.0 | 11.0 | 0.00 | 0.00 | 0.00 | 71 | 1010.7 |
| 20260506180004 | 56 | 327 | 4.0 | 11.0 | 0.00 | 0.00 | 0.00 | 72 | 1010.6 |
| 20260506175403 | 56 | 327 | 4.0 | 11.0 | 0.00 | 0.00 | 0.00 | 73 | 1010.6 |
| 20260506174503 | 56 | 341 | 4.0 | 10.0 | 0.00 | 0.00 | 0.00 | 73 | 1010.5 |
| 20260506173603 | 56 | 338 | 5.0 | 11.0 | 0.00 | 0.00 | 0.00 | 71 | 1010.4 |
| 20260506172703 | 56 | 353 | 4.0 | 9.0 | 0.00 | 0.00 | 0.00 | 72 | 1010.3 |
| 20260506171801 | 56 | 348 | 4.0 | 11.0 | 0.00 | 0.00 | 0.00 | 72 | 1010.1 |
| 20260506170903 | 56 | 335 | 5.0 | 12.0 | 0.00 | 0.00 | 0.00 | 72 | 1010.0 |
| 20260506170002 | 57 | 329 | 6.0 | 11.0 | 0.00 | 0.00 | 0.00 | 69 | 1009.9 |
| 20260506165401 | 58 | 338 | 5.0 | 11.0 | 0.00 | 0.00 | 0.00 | 67 | 1009.9 |
| 20260506164523 | 58 | 347 | 4.0 | 10.0 | 0.00 | 0.00 | 0.00 | 66 | 1009.9 |
| 20260506163602 | 58 | 353 | 5.0 | 14.0 | 0.00 | 0.00 | 0.00 | 66 | 1009.9 |
| 20260506162701 | 58 | 323 | 6.0 | 14.0 | 0.00 | 0.00 | 0.00 | 66 | 1009.8 |
| 20260506161822 | 58 | 320 | 7.0 | 15.0 | 0.00 | 0.00 | 0.00 | 65 | 1009.9 |
| 20260506160901 | 59 | 325 | 5.0 | 13.0 | 0.00 | 0.00 | 0.00 | 64 | 1009.8 |
| 20260506160023 | 59 | 342 | 5.0 | 11.0 | 0.00 | 0.00 | 0.00 | 64 | 1009.8 |
| 20260506155402 | 59 | 348 | 5.0 | 9.0 | 0.00 | 0.00 | 0.00 | 64 | 1009.9 |
| 20260506154502 | 59 | 337 | 5.0 | 13.0 | 0.00 | 0.00 | 0.00 | 65 | 1009.7 |
| 20260506153603 | 60 | 344 | 5.0 | 14.0 | 0.00 | 0.00 | 0.00 | 65 | 1009.8 |
| 20260506152723 | 60 | 4 | 6.0 | 14.0 | 0.00 | 0.00 | 0.00 | 64 | 1009.8 |
| 20260506151802 | 60 | 349 | 6.0 | 13.0 | 0.00 | 0.00 | 0.00 | 64 | 1009.9 |
| 20260506150902 | 59 | 346 | 6.0 | 18.0 | 0.00 | 0.00 | 0.00 | 64 | 1009.8 |
| 20260506150023 | 59 | 348 | 6.0 | 14.0 | 0.00 | 0.00 | 0.00 | 66 | 1009.9 |
| 20260506145402 | 59 | 349 | 6.0 | 14.0 | 0.00 | 0.00 | 0.00 | 67 | 1010.0 |
| 20260506144523 | 58 | 352 | 5.0 | 13.0 | 0.00 | 0.00 | 0.00 | 68 | 1009.8 |
| 20260506143602 | 58 | 353 | 7.0 | 15.0 | 0.00 | 0.00 | 0.00 | 66 | 1009.8 |
| 20260506142702 | 59 | 346 | 7.0 | 18.0 | 0.00 | 0.00 | 0.00 | 66 | 1009.7 |
| 20260506141802 | 59 | 356 | 6.0 | 13.0 | 0.00 | 0.00 | 0.00 | 64 | 1009.6 |
| 20260506140903 | 58 | 352 | 6.0 | 13.0 | 0.00 | 0.00 | 0.00 | 68 | 1009.6 |
| 20260506140002 | 58 | 359 | 6.0 | 14.0 | 0.00 | 0.00 | 0.00 | 66 | 1009.7 |
| 20260506135402 | 58 | 350 | 5.0 | 14.0 | 0.00 | 0.00 | 0.00 | 66 | 1009.7 |
| 20260506134502 | 57 | 2 | 7.0 | 15.0 | 0.00 | 0.00 | 0.00 | 69 | 1009.6 |
| 20260506133602 | 57 | 3 | 6.0 | 15.0 | 0.00 | 0.00 | 0.00 | 68 | 1009.6 |
| 20260506132702 | 57 | 358 | 7.0 | 15.0 | 0.00 | 0.00 | 0.00 | 68 | 1009.6 |
| 20260506131803 | 57 | 351 | 6.0 | 12.0 | 0.00 | 0.00 | 0.00 | 69 | 1009.5 |
| 20260506130923 | 57 | 332 | 5.0 | 13.0 | 0.00 | 0.00 | 0.00 | 68 | 1009.5 |
| 20260506130002 | 58 | 353 | 4.0 | 11.0 | 0.00 | 0.00 | 0.00 | 68 | 1009.5 |
| 20260506125402 | 57 | 349 | 3.0 | 9.0 | 0.00 | 0.00 | 0.00 | 68 | 1009.5 |
| 20260506124502 | 57 | 4 | 6.0 | 13.0 | 0.00 | 0.00 | 0.00 | 68 | 1009.3 |
| 20260506123603 | 57 | 1 | 7.0 | 13.0 | 0.00 | 0.00 | 0.00 | 67 | 1009.3 |
| 20260506122702 | 57 | 354 | 5.0 | 14.0 | 0.00 | 0.00 | 0.00 | 68 | 1009.2 |
| 20260506121802 | 57 | 324 | 6.0 | 14.0 | 0.00 | 0.00 | 0.00 | 69 | 1009.3 |
| 20260506120903 | 58 | 329 | 5.0 | 13.0 | 0.00 | 0.00 | 0.00 | 69 | 1009.2 |
| 20260506120024 | 58 | 352 | 6.0 | 13.0 | 0.00 | 0.00 | 0.00 | 70 | 1009.3 |
| 20260506115402 | 57 | 1 | 5.0 | 11.0 | 0.00 | 0.00 | 0.00 | 71 | 1009.2 |
| 20260506114502 | 56 | 2 | 6.0 | 12.0 | 0.00 | 0.00 | 0.00 | 69 | 1009.3 |
| 20260506113602 | 56 | 342 | 5.0 | 11.0 | 0.00 | 0.00 | 0.00 | 71 | 1009.3 |
| 20260506112702 | 56 | 337 | 5.0 | 12.0 | 0.00 | 0.00 | 0.00 | 74 | 1009.3 |
| 20260506111823 | 56 | 304 | 7.0 | 12.0 | 0.00 | 0.00 | 0.00 | 75 | 1009.2 |
| 20260506110902 | 56 | 309 | 6.0 | 12.0 | 0.00 | 0.00 | 0.00 | 77 | 1009.2 |
| 20260506110002 | 57 | 317 | 6.0 | 12.0 | 0.00 | 0.00 | 0.00 | 76 | 1009.4 |
| 20260506105403 | 57 | 324 | 5.0 | 11.0 | 0.00 | 0.00 | 0.00 | 72 | 1009.5 |
| 20260506104502 | 57 | 352 | 5.0 | 13.0 | 0.00 | 0.00 | 0.00 | 73 | 1009.3 |
| 20260506103602 | 56 | 354 | 5.0 | 12.0 | 0.00 | 0.00 | 0.00 | 74 | 1009.4 |
| 20260506102702 | 55 | 311 | 4.0 | 9.0 | 0.00 | 0.00 | 0.00 | 78 | 1009.3 |
| 20260506101802 | 55 | 323 | 4.0 | 10.0 | 0.00 | 0.00 | 0.00 | 79 | 1009.4 |
| 20260506100903 | 54 | 320 | 5.0 | 12.0 | 0.00 | 0.00 | 0.00 | 81 | 1009.3 |